EZY2W EHAM-EGCC
Flight info
| Callsign | EZY2W |
|---|---|
| Flight time | N/A |
| Altitude | 24000 |
| Route | BERGI L60 OTBED |
| Aircraft | A20N/M-SDE2E3FGHIRWXY/LB1 |
Departure
| Time | 2026-05-06 19:54 |
|---|---|
| Airport | Amsterdam Airport Schiphol (EHAM) |
Arrival
| Time | N/A |
|---|---|
| Airport | Manchester Airport (EGCC) |
| Time | Latitude | Longitude | Altitude | Speed | Heading |
|---|---|---|---|---|---|
| 2026-05-06 19:54 | 52.33262 | 4.33969 | 13746 ft | 346 kts | 238° |
| 2026-05-06 19:54 | 52.31932 | 4.30681 | 14546 ft | 346 kts | 238° |
| 2026-05-06 19:54 | 52.30647 | 4.27355 | 15390 ft | 345 kts | 245° |
| 2026-05-06 19:54 | 52.29960 | 4.23619 | 16048 ft | 349 kts | 265° |
| 2026-05-06 19:55 | 52.29966 | 4.19652 | 16752 ft | 352 kts | 272° |
| 2026-05-06 19:55 | 52.30063 | 4.15620 | 17422 ft | 356 kts | 272° |
| 2026-05-06 19:55 | 52.30165 | 4.11563 | 18223 ft | 357 kts | 272° |
| 2026-05-06 19:55 | 52.30348 | 4.07496 | 18819 ft | 362 kts | 280° |
| 2026-05-06 19:56 | 52.31147 | 4.03571 | 19476 ft | 365 kts | 291° |
| 2026-05-06 19:56 | 52.32142 | 3.99730 | 20082 ft | 369 kts | 291° |
| 2026-05-06 19:56 | 52.33158 | 3.95861 | 20672 ft | 373 kts | 291° |
| 2026-05-06 19:56 | 52.34191 | 3.91954 | 21247 ft | 377 kts | 292° |
| 2026-05-06 19:57 | 52.35227 | 3.88053 | 21823 ft | 381 kts | 292° |
| 2026-05-06 19:57 | 52.36284 | 3.84072 | 22454 ft | 382 kts | 291° |
| 2026-05-06 19:57 | 52.37344 | 3.80080 | 23092 ft | 385 kts | 291° |
| 2026-05-06 19:57 | 52.38412 | 3.76035 | 23559 ft | 391 kts | 291° |
| 2026-05-06 19:58 | 52.39497 | 3.71909 | 23799 ft | 396 kts | 292° |
| 2026-05-06 19:58 | 52.40584 | 3.67778 | 23886 ft | 394 kts | 291° |
| 2026-05-06 19:58 | 52.41665 | 3.63664 | 23969 ft | 391 kts | 291° |
| 2026-05-06 19:58 | 52.42742 | 3.59548 | 23983 ft | 394 kts | 291° |
| 2026-05-06 19:59 | 52.43814 | 3.55451 | 23979 ft | 390 kts | 291° |
| 2026-05-06 19:59 | 52.44888 | 3.51328 | 23979 ft | 394 kts | 291° |
| 2026-05-06 19:59 | 52.45952 | 3.47237 | 23981 ft | 393 kts | 291° |
| 2026-05-06 19:59 | 52.47017 | 3.43147 | 23980 ft | 388 kts | 291° |
| 2026-05-06 20:00 | 52.48080 | 3.39044 | 23984 ft | 393 kts | 291° |
| 2026-05-06 20:00 | 52.49146 | 3.34928 | 23985 ft | 390 kts | 291° |
| 2026-05-06 20:00 | 52.50204 | 3.30838 | 23985 ft | 390 kts | 291° |
| 2026-05-06 20:00 | 52.51264 | 3.26724 | 23985 ft | 392 kts | 291° |
| 2026-05-06 20:01 | 52.52327 | 3.22598 | 23983 ft | 391 kts | 291° |
| 2026-05-06 20:01 | 52.53385 | 3.18480 | 23996 ft | 390 kts | 291° |
| 2026-05-06 20:01 | 52.54439 | 3.14372 | 23996 ft | 392 kts | 291° |
| 2026-05-06 20:01 | 52.55500 | 3.10228 | 23996 ft | 393 kts | 291° |
| 2026-05-06 20:02 | 52.56558 | 3.06089 | 23996 ft | 392 kts | 291° |
| 2026-05-06 20:02 | 52.57601 | 3.02004 | 23996 ft | 391 kts | 291° |
| 2026-05-06 20:02 | 52.58653 | 2.97876 | 24008 ft | 391 kts | 291° |
| 2026-05-06 20:02 | 52.59703 | 2.93742 | 24004 ft | 392 kts | 291° |
| 2026-05-06 20:03 | 52.60752 | 2.89606 | 24004 ft | 392 kts | 291° |
| 2026-05-06 20:03 | 52.62533 | 2.82570 | 24004 ft | 391 kts | 291° |